Ruma, Illinois
Current Conditions -  °F | °C
As of 6:55 PM on Friday 19 Dec 2014 (Local Time) from KSAR Reporting Station
Overcast Overcast  
Wind Chill:   Ceiling: 3200
Heat Index:   Visibility: 10mi
Dew Point: -1°   Wind: 3mph
Humidity: 84%   Direction: 80°E
Pressure: 30.27"   Gusts: NA
Location:  38.1575°N, 89.9813°W
Report Text: KSAR 200055Z AUTO 08003KT 10SM BKN032 OVC060 01/M01 A3027 RMK AO2 T00111014
Loading
Personal Weather Stations






























Interactive Weather Map New forecast layout! Learn more

10-Day Weather Forecast

Advertisements
Track Severe Weather on mobile